createdAt,value
2022-11-04T00:02:07.268Z,100.00
2022-11-04T00:04:34.021Z,100.00
2022-11-04T00:07:00.771Z,100.00
2022-11-04T00:09:30.206Z,100.00
2022-11-04T00:12:16.866Z,100.00
2022-11-04T00:14:43.952Z,100.00
2022-11-04T00:17:19.987Z,100.00
2022-11-04T00:20:08.684Z,100.00
2022-11-04T00:22:54.557Z,100.00
2022-11-04T00:28:29.581Z,100.00
2022-11-04T00:30:58.279Z,100.00
2022-11-04T00:33:28.098Z,100.00
2022-11-04T00:35:57.257Z,100.00
2022-11-04T00:38:25.489Z,100.00
2022-11-04T00:40:52.484Z,100.00
2022-11-04T00:43:19.147Z,100.00
2022-11-04T00:45:46.141Z,100.00
2022-11-04T00:48:13.058Z,100.00
2022-11-04T00:50:39.960Z,100.00
2022-11-04T00:53:07.001Z,100.00
2022-11-04T00:55:33.937Z,100.00
2022-11-04T00:58:00.728Z,100.00
2022-11-04T01:00:27.435Z,100.00
2022-11-04T01:02:54.191Z,100.00
2022-11-04T01:05:20.945Z,100.00
2022-11-04T01:07:47.678Z,100.00
2022-11-04T01:10:14.294Z,100.00
2022-11-04T01:12:40.961Z,100.00
2022-11-04T01:15:07.943Z,100.00
2022-11-04T01:17:34.557Z,100.00
2022-11-04T01:20:01.192Z,100.00
2022-11-04T01:22:27.825Z,100.00
2022-11-04T01:24:54.422Z,100.00
2022-11-04T01:27:21.054Z,100.00
2022-11-04T01:29:47.740Z,100.00
2022-11-04T01:32:14.372Z,100.00
2022-11-04T01:34:43.459Z,100.00
2022-11-04T01:37:10.594Z,100.00
2022-11-04T01:39:37.237Z,100.00
2022-11-04T01:44:42.643Z,100.00
2022-11-04T01:47:30.927Z,100.00
2022-11-04T01:50:03.507Z,100.00
2022-11-04T01:52:45.131Z,100.00
2022-11-04T01:55:16.463Z,100.00
2022-11-04T01:57:47.536Z,100.00
2022-11-04T02:00:15.220Z,100.00
2022-11-04T02:02:59.545Z,100.00
2022-11-04T02:05:27.444Z,100.00
2022-11-04T02:07:57.902Z,100.00
2022-11-04T02:10:30.438Z,100.00
2022-11-04T02:12:59.729Z,100.00
2022-11-04T02:15:35.607Z,100.00
2022-11-04T02:18:25.344Z,100.00
2022-11-04T02:21:10.149Z,100.00
2022-11-04T02:24:09.160Z,100.00
2022-11-04T02:26:50.690Z,100.00
2022-11-04T02:29:31.119Z,100.00
2022-11-04T02:32:20.166Z,100.00
2022-11-04T02:35:07.011Z,100.00
2022-11-04T02:40:29.536Z,100.00
2022-11-04T02:43:22.424Z,100.00
2022-11-04T02:45:59.559Z,100.00
2022-11-04T02:49:09.935Z,100.00
2022-11-04T02:51:53.656Z,100.00
2022-11-04T02:54:24.401Z,100.00
2022-11-04T02:56:53.724Z,100.00
2022-11-04T02:59:28.218Z,100.00
2022-11-04T03:01:56.687Z,100.00
2022-11-04T03:04:30.924Z,100.00
2022-11-04T03:07:01.529Z,100.00
2022-11-04T03:09:31.200Z,100.00
2022-11-04T03:12:09.405Z,100.00
2022-11-04T03:14:47.667Z,100.00
2022-11-04T03:17:39.784Z,100.00
2022-11-04T03:20:16.631Z,100.00
2022-11-04T03:22:43.388Z,100.00
2022-11-04T03:25:10.695Z,100.00
2022-11-04T03:28:11.342Z,100.00
2022-11-04T03:30:43.358Z,100.00
2022-11-04T03:33:25.709Z,100.00
2022-11-04T03:35:52.993Z,100.00
2022-11-04T03:38:22.611Z,100.00
2022-11-04T03:40:50.057Z,100.00
2022-11-04T03:43:24.029Z,100.00
2022-11-04T03:45:51.788Z,100.00
2022-11-04T03:48:18.988Z,100.00
2022-11-04T03:50:48.218Z,100.00
2022-11-04T03:53:21.886Z,100.00
2022-11-04T03:56:23.227Z,100.00
2022-11-04T03:59:20.900Z,100.00
2022-11-04T04:02:00.760Z,100.00
2022-11-04T04:04:29.432Z,100.00
2022-11-04T04:07:17.691Z,100.00
2022-11-04T04:09:51.776Z,100.00
2022-11-04T04:12:38.048Z,100.00
2022-11-04T04:15:21.974Z,100.00
2022-11-04T04:18:12.637Z,100.00
2022-11-04T04:20:42.455Z,100.00
2022-11-04T04:23:34.508Z,100.00
2022-11-04T04:26:23.883Z,100.00
2022-11-04T04:28:53.193Z,100.00
2022-11-04T04:31:39.440Z,100.00
2022-11-04T04:34:07.379Z,100.00
2022-11-04T04:36:44.075Z,100.00
2022-11-04T04:39:31.405Z,100.00
2022-11-04T04:42:17.456Z,100.00
2022-11-04T04:45:02.860Z,100.00
2022-11-04T04:47:40.578Z,100.00
2022-11-04T04:50:07.730Z,100.00
2022-11-04T04:52:38.838Z,100.00
2022-11-04T04:55:06.481Z,100.00
2022-11-04T04:57:33.149Z,100.00
2022-11-04T04:59:59.788Z,100.00
2022-11-04T05:02:26.701Z,100.00
2022-11-04T05:04:53.432Z,100.00
2022-11-04T05:07:20.071Z,100.00
2022-11-04T05:09:46.699Z,100.00
2022-11-04T05:12:13.613Z,100.00
2022-11-04T05:14:40.736Z,100.00
2022-11-04T05:17:07.402Z,100.00
2022-11-04T05:19:34.019Z,100.00
2022-11-04T05:22:00.661Z,100.00
2022-11-04T05:24:27.618Z,100.00
2022-11-04T05:26:54.369Z,100.00
2022-11-04T05:29:21.171Z,100.00
2022-11-04T05:31:48.011Z,100.00
2022-11-04T05:34:15.159Z,100.00
2022-11-04T05:36:41.836Z,100.00
2022-11-04T05:39:08.524Z,100.00
2022-11-04T05:41:35.502Z,100.00
2022-11-04T05:44:03.962Z,100.00
2022-11-04T05:46:31.267Z,100.00
2022-11-04T05:48:58.019Z,100.00
2022-11-04T05:51:27.280Z,100.00
2022-11-04T05:53:54.324Z,100.00
2022-11-04T05:56:21.180Z,100.00
2022-11-04T05:58:47.835Z,100.00
2022-11-04T06:01:39.019Z,100.00
2022-11-04T06:04:07.213Z,100.00
2022-11-04T06:06:36.461Z,100.00
2022-11-04T06:09:03.975Z,100.00
2022-11-04T06:11:31.906Z,100.00
2022-11-04T06:13:59.004Z,100.00
2022-11-04T06:16:26.076Z,100.00
2022-11-04T06:18:53.491Z,100.00
2022-11-04T06:21:26.588Z,100.00
2022-11-04T06:23:55.586Z,100.00
2022-11-04T06:26:25.358Z,100.00
2022-11-04T06:28:55.175Z,100.00
2022-11-04T06:31:22.215Z,100.00
2022-11-04T06:33:48.886Z,100.00
2022-11-04T06:36:16.654Z,100.00
2022-11-04T06:38:43.465Z,100.00
2022-11-04T06:41:17.008Z,100.00
2022-11-04T06:43:43.760Z,100.00
2022-11-04T06:46:36.158Z,100.00
2022-11-04T06:49:03.304Z,100.00
2022-11-04T06:51:30.626Z,100.00
2022-11-04T06:53:57.322Z,100.00
2022-11-04T06:56:23.972Z,100.00
2022-11-04T06:58:52.155Z,100.00
2022-11-04T07:01:22.175Z,100.00
2022-11-04T07:03:50.533Z,100.00
2022-11-04T07:06:17.566Z,100.00
2022-11-04T07:08:44.269Z,100.00
2022-11-04T07:11:11.036Z,100.00
2022-11-04T07:13:37.781Z,100.00
2022-11-04T07:16:06.340Z,100.00
2022-11-04T07:18:33.507Z,100.00
2022-11-04T07:21:02.543Z,100.00
2022-11-04T07:23:32.381Z,100.00
2022-11-04T07:26:03.575Z,100.00
2022-11-04T07:28:30.312Z,100.00
2022-11-04T07:31:02.236Z,100.00
2022-11-04T07:33:28.954Z,100.00
2022-11-04T07:35:58.306Z,100.00
2022-11-04T07:38:25.606Z,100.00
2022-11-04T07:40:52.226Z,100.00
2022-11-04T07:43:18.885Z,100.00
2022-11-04T07:45:45.581Z,100.00
2022-11-04T07:48:12.521Z,100.00
2022-11-04T07:50:40.748Z,100.00
2022-11-04T07:53:08.065Z,100.00
2022-11-04T07:55:43.106Z,100.00
2022-11-04T07:58:10.196Z,100.00
2022-11-04T08:00:36.820Z,100.00
2022-11-04T08:03:03.629Z,100.00
2022-11-04T08:05:30.363Z,100.00
2022-11-04T08:07:57.937Z,100.00
2022-11-04T08:10:24.627Z,100.00
2022-11-04T08:12:52.427Z,100.00
2022-11-04T08:15:19.108Z,100.00
2022-11-04T08:17:45.743Z,100.00
2022-11-04T08:20:14.052Z,100.00
2022-11-04T08:22:40.858Z,100.00
2022-11-04T08:25:07.741Z,100.00
2022-11-04T08:27:34.883Z,100.00
2022-11-04T08:30:01.481Z,100.00
2022-11-04T08:32:28.184Z,100.00
2022-11-04T08:34:54.900Z,100.00
2022-11-04T08:37:21.523Z,100.00
2022-11-04T08:39:48.235Z,100.00
2022-11-04T08:42:15.332Z,100.00
2022-11-04T08:44:42.923Z,100.00
2022-11-04T08:47:09.615Z,100.00
2022-11-04T08:49:40.094Z,100.00
2022-11-04T08:52:06.827Z,100.00
2022-11-04T08:54:34.151Z,100.00
2022-11-04T08:57:00.799Z,100.00
2022-11-04T08:59:27.426Z,100.00
2022-11-04T09:01:54.173Z,100.00
2022-11-04T09:04:21.158Z,100.00
2022-11-04T09:06:48.653Z,100.00
2022-11-04T09:09:17.117Z,100.00
2022-11-04T09:11:45.879Z,100.00
2022-11-04T09:14:13.670Z,100.00
2022-11-04T09:16:41.512Z,100.00
2022-11-04T09:19:08.691Z,100.00
2022-11-04T09:21:35.346Z,100.00
2022-11-04T09:24:02.000Z,100.00
2022-11-04T09:26:28.729Z,100.00
2022-11-04T09:28:56.842Z,100.00
2022-11-04T09:31:24.906Z,100.00
2022-11-04T09:33:51.778Z,100.00
2022-11-04T09:36:18.455Z,100.00
2022-11-04T09:38:45.255Z,100.00
2022-11-04T09:41:34.802Z,100.00
2022-11-04T09:44:23.753Z,98.20
2022-11-04T09:46:55.462Z,100.00
2022-11-04T09:49:24.117Z,98.80
2022-11-04T09:51:54.758Z,98.20
2022-11-04T09:54:47.328Z,91.78
2022-11-04T09:57:18.375Z,99.11
2022-11-04T09:59:46.620Z,92.39
2022-11-04T10:02:35.069Z,100.00
2022-11-04T10:05:02.717Z,96.06
2022-11-04T10:07:33.434Z,95.68
2022-11-04T10:10:08.943Z,100.00
2022-11-04T10:13:02.146Z,100.00
2022-11-04T10:15:56.833Z,100.00
2022-11-04T10:19:00.844Z,96.70
2022-11-04T10:21:30.252Z,85.95
2022-11-04T10:24:15.320Z,86.96
2022-11-04T10:26:46.144Z,93.72
2022-11-04T10:29:37.449Z,94.33
2022-11-04T10:32:22.292Z,83.64
2022-11-04T10:35:04.563Z,83.88
2022-11-04T10:37:31.470Z,82.97
2022-11-04T10:40:26.085Z,93.56
2022-11-04T10:42:54.206Z,87.16
2022-11-04T10:45:27.111Z,86.67
2022-11-04T10:48:03.760Z,79.62
2022-11-04T10:50:52.923Z,74.80
2022-11-04T10:53:23.871Z,74.55
2022-11-04T10:56:05.991Z,77.23
2022-11-04T10:58:36.760Z,80.80
2022-11-04T11:01:26.596Z,78.46
2022-11-04T11:03:54.411Z,77.13
2022-11-04T11:06:35.733Z,73.54
2022-11-04T11:09:13.745Z,73.89
2022-11-04T11:11:47.337Z,73.05
2022-11-04T11:14:29.509Z,76.40
2022-11-04T11:16:57.736Z,79.52
2022-11-04T11:19:25.611Z,71.53
2022-11-04T11:21:55.663Z,68.14
2022-11-04T11:24:27.700Z,68.95
2022-11-04T11:26:57.408Z,68.67
2022-11-04T11:29:27.273Z,71.06
2022-11-04T11:31:56.568Z,75.05
2022-11-04T11:34:31.414Z,76.44
2022-11-04T11:36:59.281Z,72.58
2022-11-04T11:39:28.861Z,72.48
2022-11-04T11:42:07.011Z,72.32
2022-11-04T11:44:44.317Z,69.78
2022-11-04T11:47:42.418Z,66.29
2022-11-04T11:50:20.961Z,67.29
2022-11-04T11:52:49.480Z,65.80
2022-11-04T11:55:23.872Z,65.90
2022-11-04T12:01:02.033Z,66.55
2022-11-04T12:06:33.334Z,65.08
2022-11-04T12:09:15.486Z,65.47
2022-11-04T12:12:10.341Z,65.05
2022-11-04T12:14:55.311Z,63.82
2022-11-04T12:17:44.413Z,66.18
2022-11-04T12:20:33.265Z,70.78
2022-11-04T12:23:18.688Z,69.40
2022-11-04T12:26:01.802Z,66.37
2022-11-04T12:28:54.750Z,66.62
2022-11-04T12:31:27.529Z,65.54
2022-11-04T12:34:00.333Z,65.26
2022-11-04T12:37:07.014Z,64.88
2022-11-04T12:39:55.364Z,63.62
2022-11-04T12:42:24.562Z,65.27
2022-11-04T12:45:18.416Z,63.53
2022-11-04T12:47:47.633Z,64.50
2022-11-04T12:50:32.393Z,61.96
2022-11-04T12:53:11.234Z,62.50
2022-11-04T12:55:44.289Z,63.82
2022-11-04T12:58:55.913Z,64.44
2022-11-04T13:01:38.779Z,65.78
2022-11-04T13:04:17.294Z,64.92
2022-11-04T13:06:52.352Z,66.50
2022-11-04T13:09:30.860Z,69.90
2022-11-04T13:12:16.397Z,73.48
2022-11-04T13:15:02.588Z,76.06
2022-11-04T13:17:33.602Z,77.50
2022-11-04T13:20:26.658Z,78.03
2022-11-04T13:23:02.831Z,73.50
2022-11-04T13:25:29.873Z,72.82
2022-11-04T13:27:58.596Z,73.27
2022-11-04T13:30:40.817Z,75.37
2022-11-04T13:33:40.745Z,81.61
2022-11-04T13:36:41.305Z,83.92
2022-11-04T13:39:33.200Z,86.21
2022-11-04T13:42:26.219Z,80.55
2022-11-04T13:44:58.010Z,83.64
2022-11-04T13:47:32.514Z,87.75
2022-11-04T13:49:59.655Z,87.82
2022-11-04T13:52:31.234Z,89.58
2022-11-04T13:55:02.854Z,89.83
2022-11-04T13:57:31.864Z,90.31
2022-11-04T14:00:25.742Z,92.00
2022-11-04T14:02:54.735Z,90.73
2022-11-04T14:05:27.491Z,88.73
2022-11-04T14:08:02.953Z,89.05
2022-11-04T14:10:48.376Z,90.78
2022-11-04T14:13:30.438Z,93.72
2022-11-04T14:16:06.548Z,93.35
2022-11-04T14:18:35.935Z,94.38
2022-11-04T14:21:11.659Z,91.00
2022-11-04T14:23:40.383Z,92.50
2022-11-04T14:26:12.980Z,95.44
2022-11-04T14:28:45.516Z,97.35
2022-11-04T14:31:17.594Z,95.95
2022-11-04T14:33:55.069Z,99.56
2022-11-04T14:36:21.664Z,100.00
2022-11-04T14:39:01.978Z,100.00
2022-11-04T14:41:28.553Z,98.55
2022-11-04T14:43:58.009Z,100.00
2022-11-04T14:46:36.782Z,100.00
2022-11-04T14:49:03.800Z,100.00
2022-11-04T14:51:33.795Z,100.00
2022-11-04T14:54:06.936Z,100.00
2022-11-04T14:56:34.143Z,100.00
2022-11-04T14:59:05.418Z,100.00
2022-11-04T15:01:35.547Z,100.00
2022-11-04T15:04:14.412Z,100.00
2022-11-04T15:06:54.370Z,100.00
2022-11-04T15:09:28.622Z,100.00
2022-11-04T15:12:36.919Z,100.00
2022-11-04T15:15:38.620Z,100.00
2022-11-04T15:18:05.358Z,100.00
2022-11-04T15:20:33.230Z,100.00
2022-11-04T15:23:03.097Z,100.00
2022-11-04T15:25:29.937Z,100.00
2022-11-04T15:27:56.963Z,100.00
2022-11-04T15:30:27.740Z,100.00
2022-11-04T15:32:57.024Z,100.00
2022-11-04T15:35:24.923Z,100.00
2022-11-04T15:37:54.189Z,100.00
2022-11-04T15:40:22.171Z,100.00
2022-11-04T15:42:50.460Z,100.00
2022-11-04T15:45:29.377Z,100.00
2022-11-04T15:48:25.100Z,100.00
2022-11-04T15:51:21.891Z,100.00
2022-11-04T15:54:23.376Z,100.00
2022-11-04T15:56:55.383Z,100.00
2022-11-04T15:59:37.264Z,100.00
2022-11-04T16:02:06.649Z,100.00
2022-11-04T16:04:33.927Z,100.00
2022-11-04T16:07:24.815Z,100.00
2022-11-04T16:09:54.484Z,100.00
2022-11-04T16:12:26.994Z,100.00
2022-11-04T16:14:58.357Z,100.00
2022-11-04T16:17:26.695Z,100.00
2022-11-04T16:19:56.668Z,100.00
2022-11-04T16:22:38.948Z,100.00
2022-11-04T16:25:11.091Z,100.00
2022-11-04T16:27:38.190Z,100.00
2022-11-04T16:30:24.932Z,100.00
2022-11-04T16:32:54.332Z,100.00
2022-11-04T16:35:25.706Z,100.00
2022-11-04T16:37:53.676Z,100.00
2022-11-04T16:40:21.748Z,100.00
2022-11-04T16:42:50.662Z,100.00
2022-11-04T16:45:40.825Z,100.00
2022-11-04T16:48:08.159Z,100.00
2022-11-04T16:50:34.947Z,100.00
2022-11-04T16:53:03.755Z,100.00
2022-11-04T16:55:31.001Z,100.00
2022-11-04T16:58:03.059Z,100.00
2022-11-04T17:00:33.035Z,100.00
2022-11-04T17:03:01.554Z,100.00
2022-11-04T17:05:28.580Z,100.00
2022-11-04T17:07:58.814Z,100.00
2022-11-04T17:10:31.668Z,100.00
2022-11-04T17:12:58.427Z,100.00
2022-11-04T17:15:25.984Z,100.00
2022-11-04T17:17:52.754Z,100.00
2022-11-04T17:20:19.654Z,100.00
2022-11-04T17:22:47.345Z,100.00
2022-11-04T17:25:20.802Z,100.00
2022-11-04T17:27:48.647Z,100.00
2022-11-04T17:30:17.380Z,100.00
2022-11-04T17:32:45.435Z,100.00
2022-11-04T17:35:13.040Z,100.00
2022-11-04T17:37:40.044Z,100.00
2022-11-04T17:40:08.951Z,100.00
2022-11-04T17:42:54.119Z,100.00
2022-11-04T17:45:22.460Z,100.00
2022-11-04T17:47:49.158Z,100.00
2022-11-04T17:50:16.059Z,100.00
2022-11-04T17:52:42.792Z,100.00
2022-11-04T17:55:15.329Z,100.00
2022-11-04T17:57:43.136Z,100.00
2022-11-04T18:00:10.636Z,100.00
2022-11-04T18:02:41.413Z,100.00
2022-11-04T18:05:08.864Z,100.00
2022-11-04T18:07:35.933Z,100.00
2022-11-04T18:10:03.384Z,100.00
2022-11-04T18:12:41.411Z,100.00
2022-11-04T18:15:14.229Z,100.00
2022-11-04T18:17:42.339Z,100.00
2022-11-04T18:20:15.330Z,100.00
2022-11-04T18:22:43.159Z,100.00
2022-11-04T18:25:10.800Z,100.00
2022-11-04T18:27:37.782Z,100.00
2022-11-04T18:30:05.178Z,100.00
2022-11-04T18:32:32.073Z,100.00
2022-11-04T18:34:58.779Z,100.00
2022-11-04T18:37:25.468Z,100.00
2022-11-04T18:39:52.195Z,100.00
2022-11-04T18:42:18.912Z,100.00
2022-11-04T18:44:45.725Z,100.00
2022-11-04T18:47:14.083Z,100.00
2022-11-04T18:49:40.934Z,100.00
2022-11-04T18:52:07.615Z,100.00
2022-11-04T18:54:34.535Z,100.00
2022-11-04T18:57:01.265Z,100.00
2022-11-04T18:59:27.977Z,100.00
2022-11-04T19:01:54.678Z,100.00
2022-11-04T19:04:21.511Z,100.00
2022-11-04T19:06:48.531Z,100.00
2022-11-04T19:12:22.160Z,100.00
2022-11-04T19:14:49.214Z,100.00
2022-11-04T19:17:15.980Z,100.00
2022-11-04T19:19:42.983Z,100.00
2022-11-04T19:22:10.315Z,100.00
2022-11-04T19:24:37.188Z,100.00
2022-11-04T19:27:04.574Z,100.00
2022-11-04T19:29:32.975Z,100.00
2022-11-04T19:32:00.584Z,100.00
2022-11-04T19:34:27.417Z,100.00
2022-11-04T19:36:54.048Z,100.00
2022-11-04T19:39:20.684Z,100.00
2022-11-04T19:42:06.098Z,100.00
2022-11-04T19:44:32.879Z,100.00
2022-11-04T19:46:59.536Z,100.00
2022-11-04T19:49:31.171Z,100.00
2022-11-04T19:51:58.687Z,100.00
2022-11-04T19:54:25.338Z,100.00
2022-11-04T19:56:52.626Z,100.00
2022-11-04T19:59:19.334Z,100.00
2022-11-04T20:01:46.115Z,100.00
2022-11-04T20:04:13.436Z,100.00
2022-11-04T20:06:40.115Z,100.00
2022-11-04T20:09:09.724Z,100.00
2022-11-04T20:11:58.171Z,100.00
2022-11-04T20:14:25.371Z,100.00
2022-11-04T20:16:52.387Z,100.00
2022-11-04T20:19:22.674Z,100.00
2022-11-04T20:21:50.038Z,100.00
2022-11-04T20:24:16.990Z,100.00
2022-11-04T20:26:44.197Z,100.00
2022-11-04T20:29:11.791Z,100.00
2022-11-04T20:31:39.602Z,100.00
2022-11-04T20:34:08.506Z,100.00
2022-11-04T20:36:36.170Z,100.00
2022-11-04T20:39:08.823Z,100.00
2022-11-04T20:41:35.540Z,100.00
2022-11-04T20:44:02.878Z,100.00
2022-11-04T20:46:30.766Z,100.00
2022-11-04T20:48:58.523Z,100.00
2022-11-04T20:51:30.760Z,100.00
2022-11-04T20:54:00.693Z,100.00
2022-11-04T20:56:29.831Z,100.00
2022-11-04T20:58:59.320Z,100.00
2022-11-04T21:01:31.431Z,100.00
2022-11-04T21:04:12.192Z,100.00
2022-11-04T21:06:39.287Z,100.00
2022-11-04T21:09:12.023Z,100.00
2022-11-04T21:11:39.747Z,100.00
2022-11-04T21:14:07.837Z,100.00
2022-11-04T21:16:35.723Z,100.00
2022-11-04T21:19:03.557Z,100.00
2022-11-04T21:21:30.503Z,100.00
2022-11-04T21:24:01.462Z,100.00
2022-11-04T21:26:29.755Z,100.00
2022-11-04T21:28:58.602Z,100.00
2022-11-04T21:31:25.613Z,100.00
2022-11-04T21:33:52.787Z,100.00
2022-11-04T21:36:20.047Z,100.00
2022-11-04T21:38:46.798Z,100.00
2022-11-04T21:41:16.897Z,100.00
2022-11-04T21:43:43.828Z,100.00
2022-11-04T21:46:13.851Z,100.00
2022-11-04T21:48:42.023Z,100.00
2022-11-04T21:51:17.167Z,100.00
2022-11-04T21:53:44.138Z,100.00
2022-11-04T21:56:23.255Z,100.00
2022-11-04T21:58:51.805Z,100.00
2022-11-04T22:01:21.725Z,100.00
2022-11-04T22:04:06.565Z,100.00
2022-11-04T22:06:35.688Z,100.00
2022-11-04T22:09:04.846Z,100.00
2022-11-04T22:11:33.161Z,100.00
2022-11-04T22:14:03.841Z,100.00
2022-11-04T22:16:33.012Z,100.00
2022-11-04T22:19:02.237Z,100.00
2022-11-04T22:21:30.030Z,100.00
2022-11-04T22:23:57.617Z,100.00
2022-11-04T22:26:29.626Z,100.00
2022-11-04T22:28:57.587Z,100.00
2022-11-04T22:31:28.109Z,100.00
2022-11-04T22:33:55.464Z,100.00
2022-11-04T22:36:26.066Z,100.00
2022-11-04T22:38:53.189Z,100.00
2022-11-04T22:41:24.361Z,100.00
2022-11-04T22:43:51.071Z,100.00
2022-11-04T22:46:24.150Z,100.00
2022-11-04T22:48:50.918Z,100.00
2022-11-04T22:51:17.607Z,100.00
2022-11-04T22:53:44.512Z,100.00
2022-11-04T22:56:14.198Z,100.00
2022-11-04T22:58:41.136Z,100.00
2022-11-04T23:01:11.122Z,100.00
2022-11-04T23:03:39.273Z,100.00
2022-11-04T23:06:07.778Z,100.00
2022-11-04T23:08:36.159Z,100.00
2022-11-04T23:11:25.863Z,100.00
2022-11-04T23:14:20.527Z,100.00
2022-11-04T23:17:09.039Z,100.00
2022-11-04T23:19:37.559Z,100.00
2022-11-04T23:22:23.239Z,100.00
2022-11-04T23:25:09.994Z,100.00
2022-11-04T23:28:02.240Z,100.00
2022-11-04T23:30:31.626Z,100.00
2022-11-04T23:33:00.924Z,100.00
2022-11-04T23:36:00.957Z,100.00
2022-11-04T23:38:31.596Z,100.00
2022-11-04T23:41:20.244Z,100.00
2022-11-04T23:43:46.884Z,100.00
2022-11-04T23:46:33.701Z,100.00
2022-11-04T23:49:20.704Z,100.00
2022-11-04T23:52:05.901Z,100.00
2022-11-04T23:54:50.954Z,100.00
2022-11-04T23:57:37.048Z,100.00
